Time;durP1;ratioP1;P1;durP2;ratioP2;P2;SDS_P1;SDS_P2;PMS_P1;PMS_P2;Temp;Humidity;BMP_temperature;BMP_pressure;BME280_temperature;BME280_humidity;BME280_pressure;Samples;Min_cycle;Max_cycle;Signal;HPM_P1;HPM_P2
2023/01/28 00:01:20;;;;;;;6.30;1.23;;;2.10;99.90;;;;;;5068986;28;20023;-39
2023/01/28 00:03:50;;;;;;;3.60;1.20;;;2.10;99.90;;;;;;5068697;28;20103;-39
2023/01/28 00:06:15;;;;;;;3.85;1.30;;;2.00;99.90;;;;;;5068119;28;20513;-39
2023/01/28 00:08:41;;;;;;;5.13;1.05;;;2.00;99.90;;;;;;5068168;28;20058;-39
2023/01/28 00:11:09;;;;;;;2.85;1.08;;;2.00;99.90;;;;;;5068353;28;20020;-39
2023/01/28 00:13:34;;;;;;;3.72;1.30;;;2.00;99.90;;;;;;5068790;28;20020;-39
2023/01/28 00:16:03;;;;;;;8.32;1.17;;;2.00;99.90;;;;;;5068559;28;20036;-39
2023/01/28 00:18:30;;;;;;;3.83;1.30;;;2.00;99.90;;;;;;5068622;28;20036;-39
2023/01/28 00:21:07;;;;;;;2.33;1.20;;;1.90;99.90;;;;;;5055792;28;20497;-39
2023/01/28 00:23:35;;;;;;;8.90;1.17;;;2.00;99.90;;;;;;5060055;28;20027;-39
2023/01/28 00:26:02;;;;;;;1.92;1.00;;;1.90;99.90;;;;;;5068317;28;20439;-39
2023/01/28 00:28:28;;;;;;;1.92;1.00;;;1.90;99.90;;;;;;5068537;28;20370;-39
2023/01/28 00:30:53;;;;;;;5.38;1.45;;;1.90;99.90;;;;;;5068422;28;20025;-39
2023/01/28 00:33:19;;;;;;;4.88;1.15;;;1.90;99.90;;;;;;5068654;28;20186;-39
2023/01/28 00:35:45;;;;;;;3.22;1.73;;;1.90;99.90;;;;;;5068236;28;20027;-39
2023/01/28 00:38:11;;;;;;;2.45;1.40;;;1.80;99.90;;;;;;5068905;28;20056;-40
2023/01/28 00:40:37;;;;;;;2.58;1.25;;;1.80;99.90;;;;;;5068584;28;20437;-39
2023/01/28 00:43:02;;;;;;;4.25;1.30;;;1.80;99.90;;;;;;5068457;28;20028;-39
2023/01/28 00:45:28;;;;;;;1.73;1.33;;;1.80;99.90;;;;;;5068062;28;20252;-40
2023/01/28 00:47:54;;;;;;;5.65;2.00;;;1.90;99.90;;;;;;5068620;28;20056;-40
2023/01/28 00:50:22;;;;;;;3.50;1.30;;;1.90;99.90;;;;;;5054088;28;20398;-40
2023/01/28 00:52:47;;;;;;;6.18;1.60;;;1.80;99.90;;;;;;5060266;28;20432;-39
2023/01/28 00:55:13;;;;;;;3.25;1.60;;;1.80;99.90;;;;;;5067799;28;20024;-39
2023/01/28 00:57:39;;;;;;;4.32;1.60;;;1.80;99.90;;;;;;5067978;28;20666;-39
2023/01/28 01:00:06;;;;;;;5.47;1.42;;;1.80;99.90;;;;;;5068318;28;20106;-39
2023/01/28 01:02:32;;;;;;;5.07;1.00;;;1.70;99.90;;;;;;5068173;28;20531;-39
2023/01/28 01:04:57;;;;;;;2.42;0.88;;;1.70;99.90;;;;;;5067581;28;20411;-40
2023/01/28 01:07:30;;;;;;;4.70;1.05;;;1.70;99.90;;;;;;5068045;28;20120;-39
2023/01/28 01:09:58;;;;;;;2.33;0.90;;;1.70;99.90;;;;;;5066726;28;20013;-39
2023/01/28 01:12:24;;;;;;;4.30;1.20;;;1.70;99.90;;;;;;5068265;28;20021;-39
2023/01/28 01:14:49;;;;;;;2.72;0.93;;;1.60;99.90;;;;;;5067899;28;20040;-39
2023/01/28 01:17:15;;;;;;;3.08;1.70;;;1.60;99.90;;;;;;5067633;28;20541;-39
2023/01/28 01:19:40;;;;;;;5.43;1.05;;;1.60;99.90;;;;;;5067177;28;20032;-39
2023/01/28 01:22:06;;;;;;;3.03;1.10;;;1.60;99.90;;;;;;5055394;28;20104;-39
2023/01/28 01:24:32;;;;;;;2.72;0.88;;;1.50;99.90;;;;;;5070676;28;20050;-39
2023/01/28 01:26:58;;;;;;;4.45;1.17;;;1.50;99.90;;;;;;5072072;28;20091;-39
2023/01/28 01:29:24;;;;;;;1.42;1.00;;;1.50;99.90;;;;;;5071848;28;20086;-39
2023/01/28 01:31:49;;;;;;;1.77;1.08;;;1.50;99.90;;;;;;5071255;28;20517;-39
2023/01/28 01:34:15;;;;;;;2.40;1.23;;;1.60;99.90;;;;;;5071068;28;20035;-39
2023/01/28 01:36:42;;;;;;;2.38;1.17;;;1.50;99.90;;;;;;5071157;28;20111;-39
2023/01/28 01:39:13;;;;;;;3.08;1.83;;;1.50;99.90;;;;;;5071493;28;20056;-39
2023/01/28 01:41:38;;;;;;;3.38;1.20;;;1.50;99.90;;;;;;5071328;28;20091;-39
2023/01/28 01:44:05;;;;;;;4.25;1.30;;;1.50;99.90;;;;;;5071541;28;20056;-39
2023/01/28 01:46:38;;;;;;;1.33;0.90;;;1.60;99.90;;;;;;5070762;28;20228;-39
2023/01/28 01:49:23;;;;;;;3.28;1.10;;;1.50;99.90;;;;;;5071285;28;20020;-39
2023/01/28 01:52:14;;;;;;;1.63;0.88;;;1.50;99.90;;;;;;5053127;28;20024;-39
2023/01/28 01:54:43;;;;;;;3.92;1.20;;;1.50;99.90;;;;;;5030746;28;20029;-39
2023/01/28 01:57:14;;;;;;;4.23;1.03;;;1.50;99.90;;;;;;5031150;28;20449;-39
2023/01/28 01:59:41;;;;;;;;;;;1.50;99.90;;;;;;5031674;28;20275;-39
2023/01/28 02:02:08;;;;;;;4.20;1.30;;;1.60;99.90;;;;;;5031189;28;20280;-39
2023/01/28 02:04:42;;;;;;;2.45;1.27;;;1.60;99.90;;;;;;5030265;28;20033;-39
2023/01/28 02:07:09;;;;;;;4.40;1.55;;;1.60;99.90;;;;;;5030842;28;20025;-39
2023/01/28 02:09:37;;;;;;;4.00;1.42;;;1.60;99.90;;;;;;5031166;28;20457;-38
2023/01/28 02:12:15;;;;;;;4.63;1.88;;;1.60;99.90;;;;;;5029576;28;20245;-39
2023/01/28 02:14:52;;;;;;;3.15;1.40;;;1.60;99.90;;;;;;5029532;28;20305;-39
2023/01/28 02:17:18;;;;;;;2.28;1.40;;;1.60;99.90;;;;;;5031037;28;20017;-39
2023/01/28 02:19:51;;;;;;;3.63;1.58;;;1.60;99.90;;;;;;5030830;28;20029;-39
2023/01/28 02:22:38;;;;;;;1.73;1.20;;;1.70;99.90;;;;;;5053130;28;20085;-39
2023/01/28 02:25:18;;;;;;;1.50;1.00;;;1.70;99.90;;;;;;5070376;28;20048;-39
2023/01/28 02:28:05;;;;;;;2.88;1.00;;;1.70;99.90;;;;;;5070695;28;20448;-40
2023/01/28 02:30:42;;;;;;;4.07;1.20;;;1.70;99.90;;;;;;5069770;28;20073;-39
2023/01/28 02:33:18;;;;;;;2.42;1.10;;;1.70;99.90;;;;;;5070502;28;20032;-38
2023/01/28 02:35:52;;;;;;;2.05;0.88;;;1.70;99.90;;;;;;5069750;28;20115;-38
2023/01/28 02:38:48;;;;;;;2.42;1.20;;;1.70;99.90;;;;;;5033335;28;20036;-38
2023/01/28 02:41:24;;;;;;;5.03;1.42;;;1.80;99.90;;;;;;5021969;28;20087;-38
2023/01/28 02:43:50;;;;;;;5.60;1.42;;;1.70;99.90;;;;;;5030402;28;20406;-38
2023/01/28 02:49:17;;;;;;;2.72;1.17;;;1.80;99.90;;;;;;5029870;28;20044;-38
2023/01/28 02:52:13;;;;;;;3.35;1.23;;;1.80;99.90;;;;;;5050514;28;20094;-38
2023/01/28 02:55:19;;;;;;;3.35;1.20;;;1.80;99.90;;;;;;5029625;28;20021;-38
2023/01/28 02:57:50;;;;;;;4.18;1.83;;;1.80;99.90;;;;;;5013669;28;20152;-38
2023/01/28 03:00:26;;;;;;;2.67;1.20;;;1.80;99.90;;;;;;5030034;28;20021;-38
2023/01/28 03:03:03;;;;;;;2.65;1.45;;;1.80;99.90;;;;;;5029893;28;20029;-38
2023/01/28 03:05:36;;;;;;;3.38;1.00;;;1.80;99.90;;;;;;5029135;28;20458;-38
2023/01/28 03:09:21;;;;;;;4.45;1.30;;;1.80;99.90;;;;;;5030162;28;20025;-38
2023/01/28 03:36:49;;;;;;;2.50;0.88;;;1.90;99.90;;;;;;5032020;28;20155;-38
2023/01/28 03:39:17;;;;;;;1.60;1.10;;;1.80;99.90;;;;;;5044925;28;20037;-38
2023/01/28 03:41:54;;;;;;;2.78;1.05;;;1.90;99.90;;;;;;5029617;28;20427;-38
2023/01/28 03:47:06;;;;;;;3.47;1.42;;;1.80;99.90;;;;;;5039037;28;20091;-38
2023/01/28 03:49:31;;;;;;;1.98;1.08;;;1.80;99.90;;;;;;5034003;28;20464;-38
2023/01/28 03:51:57;;;;;;;3.38;1.27;;;1.80;99.90;;;;;;5038905;28;20324;-38
2023/01/28 03:54:22;;;;;;;2.47;1.30;;;1.80;99.90;;;;;;5039240;28;20021;-38
2023/01/28 03:56:48;;;;;;;3.50;1.48;;;1.80;99.90;;;;;;5035958;28;20025;-38
2023/01/28 03:59:14;;;;;;;2.33;1.13;;;1.80;99.90;;;;;;5040022;28;20044;-38
2023/01/28 04:01:39;;;;;;;2.58;0.88;;;1.80;99.90;;;;;;5051273;28;20614;-38
2023/01/28 04:04:05;;;;;;;3.15;1.40;;;1.80;99.90;;;;;;5043740;28;20022;-39
2023/01/28 04:06:30;;;;;;;2.17;1.20;;;1.90;99.90;;;;;;5035983;28;20398;-38
2023/01/28 04:08:58;;;;;;;1.73;1.20;;;1.80;99.90;;;;;;5041207;28;20029;-38
2023/01/28 04:11:25;;;;;;;2.08;1.35;;;1.80;99.90;;;;;;5048884;28;20028;-39
2023/01/28 04:13:51;;;;;;;4.75;2.15;;;1.80;99.90;;;;;;5048787;28;20025;-39
2023/01/28 04:16:19;;;;;;;6.38;1.88;;;1.80;99.90;;;;;;5048189;28;20029;-39
2023/01/28 04:18:45;;;;;;;1.30;1.20;;;1.80;99.90;;;;;;5048649;28;20021;-39
2023/01/28 04:21:11;;;;;;;5.22;2.60;;;1.80;99.90;;;;;;5048422;28;20029;-39
2023/01/28 04:23:37;;;;;;;4.25;1.60;;;1.80;99.90;;;;;;5047380;28;20021;-39
2023/01/28 04:26:03;;;;;;;3.47;1.23;;;1.80;99.90;;;;;;5048002;28;20047;-39
2023/01/28 04:28:29;;;;;;;2.63;1.65;;;1.80;99.90;;;;;;5048418;28;20021;-39
2023/01/28 04:30:55;;;;;;;3.47;1.50;;;1.80;99.90;;;;;;5053439;28;20017;-39
2023/01/28 04:33:22;;;;;;;2.72;1.20;;;1.70;99.90;;;;;;5066184;28;20024;-39
2023/01/28 04:35:47;;;;;;;1.35;1.20;;;1.70;99.90;;;;;;5067788;28;20035;-39
2023/01/28 04:38:13;;;;;;;1.45;1.23;;;1.70;99.90;;;;;;5068208;28;20028;-39
2023/01/28 04:40:38;;;;;;;1.95;1.40;;;1.80;99.90;;;;;;5066815;28;20221;-39
2023/01/28 04:43:04;;;;;;;2.38;1.42;;;1.80;99.90;;;;;;5068552;28;20474;-39
2023/01/28 04:45:29;;;;;;;2.08;1.52;;;1.70;99.90;;;;;;5067899;28;20036;-39
2023/01/28 04:47:55;;;;;;;2.92;1.83;;;1.80;99.90;;;;;;5068130;28;20427;-39
2023/01/28 04:50:21;;;;;;;2.72;1.52;;;1.80;99.90;;;;;;5067839;28;20028;-39
2023/01/28 04:52:46;;;;;;;3.70;1.85;;;1.80;99.90;;;;;;5068945;28;20480;-38
2023/01/28 04:55:12;;;;;;;4.00;2.10;;;1.80;99.90;;;;;;5071808;28;20025;-39
2023/01/28 04:57:37;;;;;;;2.90;1.77;;;1.80;99.90;;;;;;5072102;28;20035;-39
2023/01/28 05:00:04;;;;;;;4.03;1.40;;;1.80;99.90;;;;;;5065074;28;20036;-39
2023/01/28 05:02:30;;;;;;;3.92;1.60;;;1.80;99.90;;;;;;5063434;28;20033;-39
2023/01/28 05:04:55;;;;;;;6.60;1.83;;;1.70;99.90;;;;;;5071037;28;20029;-39
2023/01/28 05:07:21;;;;;;;3.70;1.80;;;1.70;99.90;;;;;;5071751;28;20035;-39
2023/01/28 05:09:46;;;;;;;4.18;1.70;;;1.70;99.90;;;;;;5072011;28;20029;-39
2023/01/28 05:12:12;;;;;;;3.58;1.80;;;1.70;99.90;;;;;;5071645;28;20024;-39
2023/01/28 05:14:37;;;;;;;2.75;2.00;;;1.70;99.90;;;;;;5071720;28;20528;-39
2023/01/28 05:17:03;;;;;;;5.10;2.08;;;1.70;99.90;;;;;;5071742;28;20029;-39
2023/01/28 05:19:29;;;;;;;4.20;2.00;;;1.70;99.90;;;;;;5071598;28;20021;-39
2023/01/28 05:21:54;;;;;;;3.40;2.13;;;1.70;99.90;;;;;;5071372;28;20397;-39
2023/01/28 05:24:20;;;;;;;2.72;2.00;;;1.70;99.90;;;;;;5071529;28;20074;-39
2023/01/28 05:26:45;;;;;;;2.38;1.83;;;1.70;99.90;;;;;;5068605;28;20145;-39
2023/01/28 05:29:11;;;;;;;3.70;1.90;;;1.60;99.90;;;;;;5048113;28;20032;-40
2023/01/28 05:31:36;;;;;;;3.40;2.20;;;1.70;99.90;;;;;;5062732;28;20048;-39
2023/01/28 05:34:02;;;;;;;4.80;2.17;;;1.70;99.90;;;;;;5071999;28;20222;-39
2023/01/28 05:36:27;;;;;;;9.50;2.85;;;1.70;99.90;;;;;;5070868;28;20064;-39
2023/01/28 05:38:53;;;;;;;4.38;2.42;;;1.60;99.90;;;;;;5071535;28;20489;-39
2023/01/28 05:41:19;;;;;;;5.20;2.53;;;1.60;99.90;;;;;;5071398;28;20028;-39
2023/01/28 05:43:44;;;;;;;5.20;2.80;;;1.60;99.90;;;;;;5071409;28;20028;-39
2023/01/28 05:46:09;;;;;;;3.85;3.03;;;1.60;99.90;;;;;;5071333;28;20389;-39
2023/01/28 05:48:35;;;;;;;6.47;2.60;;;1.60;99.90;;;;;;5071300;28;20028;-39
2023/01/28 05:51:01;;;;;;;4.50;1.90;;;1.60;99.90;;;;;;5070800;28;20033;-39
2023/01/28 05:53:26;;;;;;;3.20;1.90;;;1.70;99.90;;;;;;5058896;28;20107;-39
2023/01/28 05:55:52;;;;;;;3.40;1.92;;;1.70;99.90;;;;;;5050192;28;20029;-39
2023/01/28 05:58:19;;;;;;;4.35;2.25;;;1.70;99.90;;;;;;5050683;28;20032;-39
2023/01/28 06:00:45;;;;;;;3.05;2.47;;;1.60;99.90;;;;;;5055649;28;20043;-39
2023/01/28 06:03:11;;;;;;;11.15;3.97;;;1.60;99.90;;;;;;5066982;28;20078;-39
2023/01/28 06:05:37;;;;;;;5.38;2.20;;;1.60;99.90;;;;;;5069288;28;20474;-39
2023/01/28 06:08:03;;;;;;;2.30;2.00;;;1.60;99.90;;;;;;5070927;28;20094;-39
2023/01/28 06:10:29;;;;;;;3.60;1.92;;;1.60;99.90;;;;;;5070587;28;20024;-39
2023/01/28 06:12:54;;;;;;;2.10;1.85;;;1.60;99.90;;;;;;5070663;28;20374;-39
2023/01/28 06:15:20;;;;;;;3.30;2.85;;;1.60;99.90;;;;;;5070355;28;20251;-39
2023/01/28 06:17:46;;;;;;;2.58;1.88;;;1.50;99.90;;;;;;5070673;28;20520;-39
2023/01/28 06:20:12;;;;;;;2.42;1.58;;;1.60;99.90;;;;;;5070626;28;20111;-39
2023/01/28 06:22:38;;;;;;;2.10;1.80;;;1.60;99.90;;;;;;5070594;28;20039;-39
2023/01/28 06:25:04;;;;;;;3.05;2.13;;;1.60;99.90;;;;;;5045963;28;20489;-39
2023/01/28 06:27:29;;;;;;;2.47;1.38;;;1.60;99.90;;;;;;5039274;28;20025;-40
2023/01/28 06:29:55;;;;;;;2.55;1.50;;;1.60;99.90;;;;;;5043626;28;20021;-39
2023/01/28 06:32:20;;;;;;;1.50;1.25;;;1.60;99.90;;;;;;5058612;28;20430;-39
2023/01/28 06:34:46;;;;;;;5.65;1.40;;;1.60;99.90;;;;;;5049713;28;20029;-39
2023/01/28 06:37:13;;;;;;;3.22;1.77;;;1.60;99.90;;;;;;5050369;28;20029;-39
2023/01/28 06:39:38;;;;;;;3.15;1.60;;;1.60;99.90;;;;;;5048817;28;20352;-39
2023/01/28 06:42:04;;;;;;;3.30;1.48;;;1.60;99.90;;;;;;5050416;28;20057;-39
2023/01/28 06:44:29;;;;;;;2.25;1.52;;;1.60;99.90;;;;;;5048665;28;20017;-39
2023/01/28 06:46:55;;;;;;;5.45;2.17;;;1.50;99.90;;;;;;5050023;28;20025;-39
2023/01/28 06:49:20;;;;;;;6.80;1.90;;;1.50;99.90;;;;;;5050242;28;20120;-39
2023/01/28 06:51:46;;;;;;;3.28;1.52;;;1.50;99.90;;;;;;5049436;28;20064;-39
2023/01/28 06:54:13;;;;;;;3.90;1.70;;;1.50;99.90;;;;;;5048422;28;20470;-40
2023/01/28 06:56:39;;;;;;;4.18;2.25;;;1.60;99.90;;;;;;5049405;28;20029;-39
2023/01/28 06:59:05;;;;;;;4.32;2.08;;;1.60;99.90;;;;;;5047780;28;20033;-38
2023/01/28 07:01:30;;;;;;;2.28;1.75;;;1.60;99.90;;;;;;5059468;28;20386;-39
2023/01/28 07:03:56;;;;;;;3.25;1.85;;;1.60;99.90;;;;;;5069874;28;20429;-38
2023/01/28 07:06:22;;;;;;;4.05;2.00;;;1.60;99.90;;;;;;5067894;28;20025;-38
2023/01/28 07:08:48;;;;;;;6.97;1.88;;;1.60;99.90;;;;;;5069612;28;20030;-39
2023/01/28 07:11:14;;;;;;;3.92;1.77;;;1.60;99.90;;;;;;5069816;28;20040;-39
2023/01/28 07:13:40;;;;;;;2.60;1.80;;;1.60;99.90;;;;;;5069457;28;20033;-39
2023/01/28 07:16:06;;;;;;;4.07;2.30;;;1.60;99.90;;;;;;5069015;28;20086;-39
2023/01/28 07:18:32;;;;;;;2.40;1.90;;;1.60;99.90;;;;;;5038237;28;20309;-39
2023/01/28 07:20:58;;;;;;;4.15;2.10;;;1.60;99.90;;;;;;5029284;28;20462;-39
2023/01/28 07:23:23;;;;;;;3.15;1.90;;;1.60;99.90;;;;;;5029625;28;20025;-39
2023/01/28 07:25:49;;;;;;;6.80;2.00;;;1.50;99.90;;;;;;5029025;28;20030;-39
2023/01/28 07:28:20;;;;;;;3.72;1.92;;;1.60;99.90;;;;;;5029404;28;20112;-39
2023/01/28 07:30:47;;;;;;;2.60;1.95;;;1.60;99.90;;;;;;5050019;28;20033;-39
2023/01/28 07:33:12;;;;;;;3.58;1.60;;;1.60;99.90;;;;;;5065627;28;20028;-39
2023/01/28 07:35:38;;;;;;;2.80;1.80;;;1.60;99.90;;;;;;5068325;28;20025;-39
2023/01/28 07:38:03;;;;;;;3.25;1.50;;;1.60;99.90;;;;;;5068037;28;20374;-39
2023/01/28 07:40:29;;;;;;;4.05;1.60;;;1.60;99.90;;;;;;5069676;28;20025;-40
2023/01/28 07:42:55;;;;;;;2.65;1.63;;;1.60;99.90;;;;;;5069337;28;20021;-40
2023/01/28 07:45:22;;;;;;;4.07;1.77;;;1.60;99.90;;;;;;5068964;28;20021;-40
2023/01/28 07:48:02;;;;;;;6.47;1.63;;;1.60;99.90;;;;;;5069321;28;20039;-40
2023/01/28 07:50:30;;;;;;;2.25;1.70;;;1.60;99.90;;;;;;5070331;28;20047;-40
2023/01/28 07:52:56;;;;;;;5.18;2.28;;;1.60;99.90;;;;;;5070601;28;20024;-40
2023/01/28 07:55:22;;;;;;;2.53;1.67;;;1.60;99.90;;;;;;5070224;28;20013;-41
2023/01/28 07:57:55;;;;;;;2.97;1.83;;;1.60;99.90;;;;;;5070637;28;20016;-40
2023/01/28 08:00:22;;;;;;;2.97;1.80;;;1.70;99.90;;;;;;5062348;28;20026;-40
2023/01/28 08:02:48;;;;;;;2.63;1.60;;;1.70;99.90;;;;;;5063598;28;20025;-40
2023/01/28 08:05:16;;;;;;;1.67;1.58;;;1.70;99.90;;;;;;5069748;28;20020;-40
2023/01/28 08:07:42;;;;;;;2.45;1.70;;;1.70;99.90;;;;;;5070336;28;20039;-42
2023/01/28 08:10:09;;;;;;;2.50;1.77;;;1.70;99.90;;;;;;5070125;28;20020;-39
2023/01/28 08:12:34;;;;;;;2.65;1.98;;;1.80;99.90;;;;;;5049868;28;20124;-40
2023/01/28 08:15:00;;;;;;;2.17;1.98;;;1.80;99.90;;;;;;5042323;28;20033;-40
2023/01/28 08:17:27;;;;;;;3.35;1.90;;;1.80;99.90;;;;;;5038975;28;20021;-40
2023/01/28 08:19:52;;;;;;;4.35;1.92;;;1.80;99.90;;;;;;5043517;28;20033;-40
2023/01/28 08:22:18;;;;;;;4.43;1.73;;;1.80;99.90;;;;;;5043562;28;20041;-40
2023/01/28 08:24:43;;;;;;;1.77;1.30;;;1.80;99.90;;;;;;5043597;28;20025;-40
2023/01/28 08:27:09;;;;;;;2.53;1.70;;;1.80;99.90;;;;;;5036990;28;20021;-40
2023/01/28 08:29:34;;;;;;;3.08;2.00;;;1.80;99.90;;;;;;5044122;28;20040;-40
2023/01/28 08:32:00;;;;;;;2.08;1.55;;;1.80;99.90;;;;;;5045409;28;20040;-40
2023/01/28 08:34:25;;;;;;;3.30;1.42;;;1.80;99.90;;;;;;5045064;28;20068;-40
2023/01/28 08:36:51;;;;;;;4.30;1.83;;;1.80;99.90;;;;;;5043960;28;20428;-40
2023/01/28 08:39:16;;;;;;;5.13;1.58;;;1.80;99.90;;;;;;5043300;28;20029;-40
2023/01/28 08:41:42;;;;;;;2.88;1.50;;;1.80;99.90;;;;;;5042643;28;20025;-40
2023/01/28 08:44:07;;;;;;;3.83;1.30;;;1.80;99.90;;;;;;5042381;28;20155;-40
2023/01/28 08:46:33;;;;;;;6.80;1.90;;;1.80;99.90;;;;;;5041806;28;20075;-40
2023/01/28 08:48:58;;;;;;;2.40;1.27;;;1.80;99.90;;;;;;5042303;28;20028;-40
2023/01/28 08:51:24;;;;;;;2.88;1.63;;;1.90;99.90;;;;;;5041252;28;20033;-40
2023/01/28 08:53:49;;;;;;;3.25;1.70;;;1.90;99.90;;;;;;5042768;28;20032;-40
2023/01/28 08:56:15;;;;;;;3.17;1.50;;;1.90;99.90;;;;;;5042612;28;20021;-41
2023/01/28 08:58:41;;;;;;;2.20;2.00;;;1.90;99.90;;;;;;5043636;28;20025;-40
2023/01/28 09:01:06;;;;;;;4.88;1.77;;;1.90;99.90;;;;;;5046831;28;20634;-40
2023/01/28 09:03:32;;;;;;;2.53;1.73;;;2.00;99.90;;;;;;5050120;28;20476;-39
2023/01/28 09:06:02;;;;;;;3.20;1.73;;;2.10;99.90;;;;;;5051260;28;20024;-39
2023/01/28 09:08:27;;;;;;;2.88;1.48;;;2.10;99.90;;;;;;5051710;28;20025;-40
2023/01/28 09:10:57;;;;;;;3.00;1.40;;;2.20;99.90;;;;;;5051904;28;20193;-39
2023/01/28 09:13:23;;;;;;;1.63;1.48;;;2.20;99.90;;;;;;5051837;28;20033;-40
2023/01/28 09:15:50;;;;;;;5.13;1.80;;;2.20;99.90;;;;;;5051765;28;20104;-39
2023/01/28 09:18:16;;;;;;;4.55;1.60;;;2.10;99.90;;;;;;5050470;28;20070;-40
2023/01/28 09:20:42;;;;;;;2.20;1.30;;;2.20;99.90;;;;;;5051697;28;20105;-39
2023/01/28 09:23:07;;;;;;;3.90;1.55;;;2.30;99.90;;;;;;5052090;28;20384;-40
2023/01/28 09:25:35;;;;;;;4.95;1.83;;;2.30;99.90;;;;;;5051255;28;20382;-40
2023/01/28 09:28:00;;;;;;;1.88;1.58;;;2.30;99.90;;;;;;5051459;28;20021;-40
2023/01/28 09:30:26;;;;;;;1.98;1.73;;;2.30;99.90;;;;;;5056120;28;20024;-40
2023/01/28 09:32:53;;;;;;;3.47;1.70;;;2.30;99.90;;;;;;5065126;28;20013;-40
2023/01/28 09:35:19;;;;;;;6.95;1.60;;;2.30;99.90;;;;;;5070892;28;20013;-40
2023/01/28 09:37:46;;;;;;;3.20;1.52;;;2.30;99.90;;;;;;5071231;28;20523;-40
2023/01/28 09:40:23;;;;;;;2.50;1.60;;;2.40;99.90;;;;;;5069900;28;20469;-40
2023/01/28 09:42:59;;;;;;;2.40;1.10;;;2.50;99.90;;;;;;5069207;28;20040;-40
2023/01/28 09:45:40;;;;;;;1.90;1.55;;;2.50;99.90;;;;;;5052709;28;20291;-41
2023/01/28 09:48:09;;;;;;;;;;;2.60;99.90;;;;;;5057698;28;20535;-40
2023/01/28 09:50:41;;;;;;;3.80;1.50;;;2.60;99.90;;;;;;5056761;28;20210;-40
2023/01/28 09:53:15;;;;;;;2.83;1.58;;;2.50;99.90;;;;;;5057574;28;20039;-40
2023/01/28 09:55:52;;;;;;;1.40;1.30;;;2.40;99.90;;;;;;5055186;28;20028;-40
2023/01/28 09:58:18;;;;;;;1.90;1.20;;;2.40;99.90;;;;;;5068276;28;20024;-40
2023/01/28 10:00:59;;;;;;;5.22;1.60;;;2.40;99.90;;;;;;5059245;28;20071;-40
2023/01/28 10:03:36;;;;;;;;;;;2.40;99.90;;;;;;5069688;28;20039;-40
2023/01/28 10:06:29;;;;;;;1.95;1.40;;;2.40;99.90;;;;;;5070249;28;20389;-40
2023/01/28 10:08:58;;;;;;;2.97;1.48;;;2.30;99.90;;;;;;5070645;28;20067;-40
2023/01/28 10:11:26;;;;;;;2.65;1.40;;;2.30;99.90;;;;;;5034360;28;20048;-40
2023/01/28 10:14:06;;;;;;;3.17;1.60;;;2.30;99.90;;;;;;5029380;28;20022;-40
2023/01/28 10:16:45;;;;;;;2.35;1.75;;;2.30;99.90;;;;;;5028886;28;20044;-40
2023/01/28 10:19:23;;;;;;;3.22;1.40;;;2.20;99.90;;;;;;5029226;28;20250;-40
2023/01/28 10:22:00;;;;;;;6.88;2.38;;;2.20;99.90;;;;;;5029435;28;20024;-40
2023/01/28 10:24:35;;;;;;;3.03;2.05;;;2.30;99.90;;;;;;5030227;28;20112;-40
2023/01/28 10:27:30;;;;;;;2.05;1.50;;;2.30;99.90;;;;;;5028963;28;20605;-40
2023/01/28 10:29:58;;;;;;;2.25;1.52;;;2.40;99.90;;;;;;5032466;28;20032;-41
2023/01/28 10:32:33;;;;;;;1.90;1.50;;;2.30;99.90;;;;;;5061050;28;20016;-40
2023/01/28 10:35:00;;;;;;;4.07;1.63;;;2.40;99.90;;;;;;5069362;28;20024;-40
2023/01/28 10:37:27;;;;;;;3.00;1.80;;;2.40;99.90;;;;;;5069455;28;20429;-40
2023/01/28 10:39:56;;;;;;;2.35;1.98;;;2.30;99.90;;;;;;5070134;28;20492;-40
2023/01/28 10:42:29;;;;;;;3.08;1.83;;;2.30;99.90;;;;;;5069561;28;20025;-40
2023/01/28 10:45:13;;;;;;;4.93;1.60;;;2.30;99.90;;;;;;5069868;28;20442;-40
2023/01/28 10:47:45;;;;;;;3.55;1.67;;;2.20;99.90;;;;;;5070081;28;20389;-40
2023/01/28 10:50:17;;;;;;;4.85;2.30;;;2.20;99.90;;;;;;5070042;28;20105;-40
2023/01/28 10:52:56;;;;;;;3.30;2.10;;;2.20;99.90;;;;;;5068265;28;20098;-40
2023/01/28 10:55:23;;;;;;;6.93;2.85;;;2.20;99.90;;;;;;5069513;28;20044;-40
2023/01/28 10:57:49;;;;;;;4.60;1.90;;;2.20;99.90;;;;;;5059244;28;20082;-40
2023/01/28 11:00:22;;;;;;;4.18;1.80;;;2.30;99.90;;;;;;5052958;28;20021;-40
2023/01/28 11:02:48;;;;;;;2.95;2.00;;;2.50;99.90;;;;;;5062883;28;20016;-40
2023/01/28 11:05:20;;;;;;;5.43;1.90;;;2.50;99.90;;;;;;5049974;28;20076;-41
2023/01/28 11:07:49;;;;;;;2.75;1.73;;;2.60;99.90;;;;;;5049611;28;20028;-41
2023/01/28 11:10:35;;;;;;;4.30;2.58;;;2.60;99.90;;;;;;5049994;28;20025;-39
2023/01/28 11:13:04;;;;;;;3.72;2.03;;;2.40;99.90;;;;;;5048326;28;20521;-39
2023/01/28 11:15:31;;;;;;;3.72;2.15;;;2.40;99.90;;;;;;5049091;28;20435;-39
2023/01/28 11:18:05;;;;;;;3.97;2.05;;;2.40;99.90;;;;;;5049709;28;20466;-39
2023/01/28 11:20:37;;;;;;;4.40;2.53;;;2.40;99.90;;;;;;5049596;28;20494;-40
2023/01/28 11:23:02;;;;;;;3.63;2.45;;;2.30;99.90;;;;;;5049434;28;20029;-40
2023/01/28 11:25:32;;;;;;;5.63;2.92;;;2.30;99.90;;;;;;5049286;28;20124;-40
2023/01/28 11:28:00;;;;;;;3.95;1.90;;;2.30;99.90;;;;;;5049331;28;20021;-40
2023/01/28 11:30:28;;;;;;;3.90;1.95;;;2.30;99.90;;;;;;5053945;28;20081;-40
2023/01/28 11:33:18;;;;;;;3.75;1.77;;;2.30;99.90;;;;;;5063208;28;20363;-40
2023/01/28 11:35:54;;;;;;;4.18;2.58;;;2.30;99.90;;;;;;5068711;28;20489;-40
2023/01/28 11:38:23;;;;;;;4.65;2.47;;;2.20;99.90;;;;;;5069475;28;20028;-40
2023/01/28 11:40:51;;;;;;;4.15;2.85;;;2.30;99.90;;;;;;5069125;28;20099;-40
2023/01/28 11:43:16;;;;;;;6.18;3.83;;;2.40;99.90;;;;;;5068937;28;20107;-40
2023/01/28 11:45:54;;;;;;;6.95;3.92;;;2.30;99.90;;;;;;5068425;28;20040;-40
2023/01/28 11:48:44;;;;;;;5.30;3.53;;;2.30;99.90;;;;;;5067765;28;20029;-40
2023/01/28 11:51:43;;;;;;;7.80;4.60;;;2.30;99.90;;;;;;5068786;28;20089;-40
2023/01/28 11:54:20;;;;;;;8.50;4.85;;;2.30;99.90;;;;;;5058522;28;20055;-40
2023/01/28 11:57:08;;;;;;;10.45;4.72;;;2.30;99.90;;;;;;5048456;28;20063;-40
2023/01/28 12:00:04;;;;;;;7.53;4.80;;;2.40;99.90;;;;;;5048045;28;20016;-40
2023/01/28 12:02:43;;;;;;;11.57;5.32;;;2.20;99.90;;;;;;5059906;28;20432;-40
2023/01/28 12:05:39;;;;;;;10.48;6.22;;;2.30;99.90;;;;;;5068476;28;20158;-40
2023/01/28 12:08:26;;;;;;;9.15;5.00;;;2.40;99.90;;;;;;5069091;28;20477;-40
2023/01/28 12:11:06;;;;;;;9.52;5.13;;;2.40;99.90;;;;;;5068810;28;20029;-40
2023/01/28 12:13:47;;;;;;;7.78;4.68;;;2.50;99.90;;;;;;5068784;28;20635;-40
2023/01/28 12:16:40;;;;;;;16.83;5.25;;;2.50;99.90;;;;;;5068316;28;20024;-40
2023/01/28 12:19:18;;;;;;;11.73;5.18;;;2.50;99.90;;;;;;5068901;28;20232;-40
2023/01/28 12:21:44;;;;;;;9.68;4.90;;;2.60;99.90;;;;;;5067227;28;20158;-40
2023/01/28 12:24:28;;;;;;;4.82;3.90;;;2.50;99.90;;;;;;5068400;28;20100;-41
2023/01/28 12:27:29;;;;;;;7.40;5.07;;;2.60;99.90;;;;;;5068242;28;20529;-40
2023/01/28 12:30:08;;;;;;;;;;;2.60;99.90;;;;;;5061954;28;20056;-40
2023/01/28 12:32:51;;;;;;;5.90;4.05;;;2.70;99.90;;;;;;5060263;28;20293;-40
2023/01/28 12:36:06;;;;;;;10.30;4.15;;;2.80;99.90;;;;;;5068345;28;20078;-40
2023/01/28 12:39:00;;;;;;;6.60;3.85;;;2.80;99.90;;;;;;5053612;28;20051;-40
2023/01/28 12:41:35;;;;;;;6.65;3.63;;;2.80;99.90;;;;;;5068546;28;20513;-40
2023/01/28 12:44:10;;;;;;;6.18;4.13;;;2.90;99.90;;;;;;5068509;28;20104;-40
2023/01/28 12:46:41;;;;;;;7.28;4.40;;;2.90;99.90;;;;;;5067775;28;20046;-40
2023/01/28 12:49:23;;;;;;;4.65;3.55;;;2.90;99.90;;;;;;5068330;28;20039;-40
2023/01/28 12:51:56;;;;;;;5.85;3.30;;;3.00;99.90;;;;;;5066823;28;20554;-40
2023/01/28 12:54:48;;;;;;;7.40;3.15;;;3.10;99.90;;;;;;5068340;28;20539;-40
2023/01/28 12:57:21;;;;;;;7.18;2.85;;;3.10;99.90;;;;;;5068432;28;20033;-40
2023/01/28 12:59:57;;;;;;;3.35;2.50;;;3.30;99.90;;;;;;5060887;28;20031;-40
2023/01/28 13:02:28;;;;;;;4.03;2.38;;;3.90;99.90;;;;;;5059760;28;20021;-40
2023/01/28 13:05:13;;;;;;;4.10;2.55;;;4.40;99.90;;;;;;5068098;28;20024;-40
2023/01/28 13:07:46;;;;;;;3.95;2.20;;;4.50;99.90;;;;;;5067946;28;20382;-39
2023/01/28 13:10:16;;;;;;;4.07;2.33;;;4.60;98.20;;;;;;5067802;28;20025;-38
2023/01/28 13:12:43;;;;;;;6.75;3.10;;;4.50;99.90;;;;;;5068008;28;20017;-39
2023/01/28 13:15:15;;;;;;;6.38;2.95;;;4.60;99.60;;;;;;5070253;28;20028;-39
2023/01/28 13:17:56;;;;;;;3.85;2.80;;;4.20;98.60;;;;;;5070649;28;20078;-40
2023/01/28 13:20:50;;;;;;;4.50;2.92;;;4.10;99.10;;;;;;5070318;28;20041;-51
2023/01/28 13:23:43;;;;;;;8.45;3.60;;;3.90;98.80;;;;;;5031917;28;20026;-48
2023/01/28 13:26:18;;;;;;;5.32;3.38;;;3.40;99.60;;;;;;5030955;28;20252;-50
2023/01/28 13:28:45;;;;;;;4.07;2.75;;;3.00;99.90;;;;;;5033158;28;20065;-48
2023/01/28 13:31:16;;;;;;;6.07;3.15;;;3.10;99.90;;;;;;5057452;28;20100;-50
2023/01/28 13:33:47;;;;;;;6.50;3.60;;;3.10;99.90;;;;;;5033202;28;20029;-48
2023/01/28 13:36:28;;;;;;;5.40;3.00;;;3.20;99.90;;;;;;5030860;28;20030;-49
2023/01/28 13:39:06;;;;;;;7.55;3.05;;;3.30;99.90;;;;;;5031599;28;20242;-48
2023/01/28 13:41:40;;;;;;;6.85;3.03;;;3.30;99.90;;;;;;5031029;28;20033;-48
2023/01/28 13:44:24;;;;;;;4.07;2.70;;;3.20;99.90;;;;;;5026491;28;20072;-51
2023/01/28 13:46:51;;;;;;;5.35;2.97;;;3.20;99.90;;;;;;5044717;28;20025;-48